sensor_id;sensor_type;location;lat;lon;timestamp;temperature;humidity
37380;DHT22;23252;-33.992;18.480;2023-04-06T00:00:03;19.90;99.90
37380;DHT22;23252;-33.992;18.480;2023-04-06T00:02:31;19.90;99.90
37380;DHT22;23252;-33.992;18.480;2023-04-06T00:04:57;19.90;99.90
37380;DHT22;23252;-33.992;18.480;2023-04-06T02:14:45;18.00;99.90
37380;DHT22;23252;-33.992;18.480;2023-04-06T02:17:12;18.30;99.90
37380;DHT22;23252;-33.992;18.480;2023-04-06T02:19:38;18.30;99.90
37380;DHT22;23252;-33.992;18.480;2023-04-06T02:22:05;18.40;99.90
37380;DHT22;23252;-33.992;18.480;2023-04-06T02:24:31;18.50;99.90
37380;DHT22;23252;-33.992;18.480;2023-04-06T02:26:58;18.50;99.90
37380;DHT22;23252;-33.992;18.480;2023-04-06T02:29:25;18.50;99.90
37380;DHT22;23252;-33.992;18.480;2023-04-06T02:31:51;18.50;99.90
37380;DHT22;23252;-33.992;18.480;2023-04-06T02:34:18;18.50;99.90
37380;DHT22;23252;-33.992;18.480;2023-04-06T02:36:48;18.40;99.90
37380;DHT22;23252;-33.992;18.480;2023-04-06T02:39:14;18.40;99.90
37380;DHT22;23252;-33.992;18.480;2023-04-06T02:41:41;18.40;99.90
37380;DHT22;23252;-33.992;18.480;2023-04-06T02:44:11;18.40;99.90
37380;DHT22;23252;-33.992;18.480;2023-04-06T02:46:37;18.40;99.90
37380;DHT22;23252;-33.992;18.480;2023-04-06T02:49:04;18.50;99.90
37380;DHT22;23252;-33.992;18.480;2023-04-06T02:51:30;18.50;99.90
37380;DHT22;23252;-33.992;18.480;2023-04-06T02:53:57;18.50;99.90
37380;DHT22;23252;-33.992;18.480;2023-04-06T02:56:23;18.60;99.90
37380;DHT22;23252;-33.992;18.480;2023-04-06T02:58:50;18.50;99.90
37380;DHT22;23252;-33.992;18.480;2023-04-06T03:01:17;18.50;99.90
37380;DHT22;23252;-33.992;18.480;2023-04-06T03:03:43;18.40;99.90
37380;DHT22;23252;-33.992;18.480;2023-04-06T03:06:10;18.30;99.90
37380;DHT22;23252;-33.992;18.480;2023-04-06T03:08:36;18.30;99.90
37380;DHT22;23252;-33.992;18.480;2023-04-06T03:11:03;18.30;99.90
37380;DHT22;23252;-33.992;18.480;2023-04-06T03:13:30;18.30;99.90
37380;DHT22;23252;-33.992;18.480;2023-04-06T03:15:56;18.20;99.90
37380;DHT22;23252;-33.992;18.480;2023-04-06T03:18:24;18.30;99.90
37380;DHT22;23252;-33.992;18.480;2023-04-06T03:20:51;18.30;99.90
37380;DHT22;23252;-33.992;18.480;2023-04-06T03:23:21;18.30;99.90
37380;DHT22;23252;-33.992;18.480;2023-04-06T03:25:47;18.20;99.90
37380;DHT22;23252;-33.992;18.480;2023-04-06T03:28:14;18.20;99.90
37380;DHT22;23252;-33.992;18.480;2023-04-06T03:30:42;18.30;99.90
37380;DHT22;23252;-33.992;18.480;2023-04-06T03:33:08;18.20;99.90
37380;DHT22;23252;-33.992;18.480;2023-04-06T03:35:35;18.10;99.90
37380;DHT22;23252;-33.992;18.480;2023-04-06T03:38:03;18.00;99.90
37380;DHT22;23252;-33.992;18.480;2023-04-06T03:40:32;18.00;99.90
37380;DHT22;23252;-33.992;18.480;2023-04-06T03:42:59;18.00;99.90
37380;DHT22;23252;-33.992;18.480;2023-04-06T03:45:26;18.00;99.90
37380;DHT22;23252;-33.992;18.480;2023-04-06T03:47:52;18.00;99.90
37380;DHT22;23252;-33.992;18.480;2023-04-06T03:50:19;18.10;99.90
37380;DHT22;23252;-33.992;18.480;2023-04-06T03:52:45;18.00;99.90
37380;DHT22;23252;-33.992;18.480;2023-04-06T03:55:12;18.10;99.90
37380;DHT22;23252;-33.992;18.480;2023-04-06T03:57:38;18.10;99.90
37380;DHT22;23252;-33.992;18.480;2023-04-06T04:00:06;18.10;99.90
37380;DHT22;23252;-33.992;18.480;2023-04-06T04:02:32;18.20;99.90
37380;DHT22;23252;-33.992;18.480;2023-04-06T04:04:59;18.20;99.90
37380;DHT22;23252;-33.992;18.480;2023-04-06T04:07:25;18.20;99.90
37380;DHT22;23252;-33.992;18.480;2023-04-06T04:09:52;18.20;99.90
37380;DHT22;23252;-33.992;18.480;2023-04-06T04:12:18;18.30;99.90
37380;DHT22;23252;-33.992;18.480;2023-04-06T04:14:45;18.30;99.90
37380;DHT22;23252;-33.992;18.480;2023-04-06T04:17:11;18.30;99.90
37380;DHT22;23252;-33.992;18.480;2023-04-06T04:19:38;18.30;99.90
37380;DHT22;23252;-33.992;18.480;2023-04-06T04:22:04;18.20;99.90
37380;DHT22;23252;-33.992;18.480;2023-04-06T04:24:32;18.20;99.90
37380;DHT22;23252;-33.992;18.480;2023-04-06T04:26:59;18.20;99.90
37380;DHT22;23252;-33.992;18.480;2023-04-06T04:29:29;18.20;99.90
37380;DHT22;23252;-33.992;18.480;2023-04-06T04:31:55;18.30;99.90
37380;DHT22;23252;-33.992;18.480;2023-04-06T04:34:22;18.30;99.90
37380;DHT22;23252;-33.992;18.480;2023-04-06T04:36:52;18.30;99.90
37380;DHT22;23252;-33.992;18.480;2023-04-06T04:39:19;18.40;99.90
37380;DHT22;23252;-33.992;18.480;2023-04-06T04:41:46;18.40;99.90
37380;DHT22;23252;-33.992;18.480;2023-04-06T04:44:12;18.50;99.90
37380;DHT22;23252;-33.992;18.480;2023-04-06T04:46:39;18.60;99.90
37380;DHT22;23252;-33.992;18.480;2023-04-06T04:49:07;18.60;99.90
37380;DHT22;23252;-33.992;18.480;2023-04-06T04:51:33;18.70;99.90
37380;DHT22;23252;-33.992;18.480;2023-04-06T04:54:00;18.70;99.90
37380;DHT22;23252;-33.992;18.480;2023-04-06T04:56:27;18.70;99.90
37380;DHT22;23252;-33.992;18.480;2023-04-06T04:58:54;18.70;99.90
37380;DHT22;23252;-33.992;18.480;2023-04-06T05:01:21;18.60;99.90
37380;DHT22;23252;-33.992;18.480;2023-04-06T05:03:47;18.60;99.90
37380;DHT22;23252;-33.992;18.480;2023-04-06T05:06:14;18.50;99.90
37380;DHT22;23252;-33.992;18.480;2023-04-06T05:08:41;18.50;99.90
37380;DHT22;23252;-33.992;18.480;2023-04-06T05:11:09;18.40;99.90
37380;DHT22;23252;-33.992;18.480;2023-04-06T05:13:36;18.30;99.90
37380;DHT22;23252;-33.992;18.480;2023-04-06T05:16:02;18.20;99.90
37380;DHT22;23252;-33.992;18.480;2023-04-06T05:18:29;18.20;99.90
37380;DHT22;23252;-33.992;18.480;2023-04-06T05:20:55;18.20;99.90
37380;DHT22;23252;-33.992;18.480;2023-04-06T05:23:22;18.20;99.90
37380;DHT22;23252;-33.992;18.480;2023-04-06T05:25:49;18.20;99.90
37380;DHT22;23252;-33.992;18.480;2023-04-06T05:28:15;18.20;99.90
37380;DHT22;23252;-33.992;18.480;2023-04-06T05:30:43;18.20;99.90
37380;DHT22;23252;-33.992;18.480;2023-04-06T05:33:11;18.10;99.90
37380;DHT22;23252;-33.992;18.480;2023-04-06T05:35:37;18.00;99.90
37380;DHT22;23252;-33.992;18.480;2023-04-06T05:38:05;18.00;99.90
37380;DHT22;23252;-33.992;18.480;2023-04-06T05:40:32;18.00;99.90
37380;DHT22;23252;-33.992;18.480;2023-04-06T05:42:58;17.90;99.90
37380;DHT22;23252;-33.992;18.480;2023-04-06T05:45:25;17.90;99.90
37380;DHT22;23252;-33.992;18.480;2023-04-06T05:47:52;17.80;99.90
37380;DHT22;23252;-33.992;18.480;2023-04-06T05:50:18;17.80;99.90
37380;DHT22;23252;-33.992;18.480;2023-04-06T05:52:45;17.80;99.90
37380;DHT22;23252;-33.992;18.480;2023-04-06T05:55:12;17.70;99.90
37380;DHT22;23252;-33.992;18.480;2023-04-06T05:57:39;17.70;99.90
37380;DHT22;23252;-33.992;18.480;2023-04-06T06:00:06;17.60;99.90
37380;DHT22;23252;-33.992;18.480;2023-04-06T06:02:35;17.70;99.90
37380;DHT22;23252;-33.992;18.480;2023-04-06T06:05:02;17.70;99.90
37380;DHT22;23252;-33.992;18.480;2023-04-06T06:07:35;17.70;99.90
37380;DHT22;23252;-33.992;18.480;2023-04-06T06:10:02;17.80;99.90
37380;DHT22;23252;-33.992;18.480;2023-04-06T06:12:29;18.00;99.90
37380;DHT22;23252;-33.992;18.480;2023-04-06T06:14:56;18.20;99.90
37380;DHT22;23252;-33.992;18.480;2023-04-06T06:17:22;18.30;99.90
37380;DHT22;23252;-33.992;18.480;2023-04-06T06:19:49;18.30;99.90
37380;DHT22;23252;-33.992;18.480;2023-04-06T06:22:15;18.40;99.90
37380;DHT22;23252;-33.992;18.480;2023-04-06T06:24:45;18.50;99.90
37380;DHT22;23252;-33.992;18.480;2023-04-06T06:27:21;18.60;99.90
37380;DHT22;23252;-33.992;18.480;2023-04-06T06:29:47;18.70;99.90
37380;DHT22;23252;-33.992;18.480;2023-04-06T06:32:16;18.80;99.90
37380;DHT22;23252;-33.992;18.480;2023-04-06T06:34:43;18.80;99.90
37380;DHT22;23252;-33.992;18.480;2023-04-06T06:37:11;18.80;99.90
37380;DHT22;23252;-33.992;18.480;2023-04-06T06:39:37;18.70;99.90
37380;DHT22;23252;-33.992;18.480;2023-04-06T06:42:04;18.70;99.90
37380;DHT22;23252;-33.992;18.480;2023-04-06T06:44:33;18.70;99.90
37380;DHT22;23252;-33.992;18.480;2023-04-06T06:47:03;18.70;99.90
37380;DHT22;23252;-33.992;18.480;2023-04-06T06:49:35;18.80;99.90
37380;DHT22;23252;-33.992;18.480;2023-04-06T06:52:01;18.70;99.90
37380;DHT22;23252;-33.992;18.480;2023-04-06T06:54:31;18.80;99.90
37380;DHT22;23252;-33.992;18.480;2023-04-06T06:56:57;18.80;99.90
37380;DHT22;23252;-33.992;18.480;2023-04-06T06:59:25;19.00;99.90
37380;DHT22;23252;-33.992;18.480;2023-04-06T07:01:55;19.10;99.90
37380;DHT22;23252;-33.992;18.480;2023-04-06T07:04:21;19.20;99.90
37380;DHT22;23252;-33.992;18.480;2023-04-06T07:06:48;19.40;99.90
37380;DHT22;23252;-33.992;18.480;2023-04-06T07:09:14;19.50;99.90
37380;DHT22;23252;-33.992;18.480;2023-04-06T07:11:41;19.50;99.90
37380;DHT22;23252;-33.992;18.480;2023-04-06T07:14:07;19.60;99.90
37380;DHT22;23252;-33.992;18.480;2023-04-06T07:16:34;19.70;99.90
37380;DHT22;23252;-33.992;18.480;2023-04-06T07:19:00;19.80;99.90
37380;DHT22;23252;-33.992;18.480;2023-04-06T07:21:27;19.80;99.90
37380;DHT22;23252;-33.992;18.480;2023-04-06T07:23:53;19.90;99.90
37380;DHT22;23252;-33.992;18.480;2023-04-06T07:26:20;20.00;99.90
37380;DHT22;23252;-33.992;18.480;2023-04-06T07:28:46;20.10;99.90
37380;DHT22;23252;-33.992;18.480;2023-04-06T07:31:13;20.30;99.90
37380;DHT22;23252;-33.992;18.480;2023-04-06T07:37:12;20.30;99.90
37380;DHT22;23252;-33.992;18.480;2023-04-06T07:39:39;20.30;99.90
37380;DHT22;23252;-33.992;18.480;2023-04-06T07:42:06;20.20;99.90
37380;DHT22;23252;-33.992;18.480;2023-04-06T07:44:35;20.20;99.90
37380;DHT22;23252;-33.992;18.480;2023-04-06T07:47:02;20.30;99.90
37380;DHT22;23252;-33.992;18.480;2023-04-06T07:49:29;20.30;99.90
37380;DHT22;23252;-33.992;18.480;2023-04-06T07:52:05;20.30;99.90
37380;DHT22;23252;-33.992;18.480;2023-04-06T07:54:32;20.40;99.90
37380;DHT22;23252;-33.992;18.480;2023-04-06T07:56:58;20.50;99.90
37380;DHT22;23252;-33.992;18.480;2023-04-06T07:59:25;20.60;99.90
37380;DHT22;23252;-33.992;18.480;2023-04-06T08:01:55;20.70;99.90
37380;DHT22;23252;-33.992;18.480;2023-04-06T08:04:21;20.90;99.90
37380;DHT22;23252;-33.992;18.480;2023-04-06T08:06:48;21.00;99.90
37380;DHT22;23252;-33.992;18.480;2023-04-06T08:09:15;21.10;99.90
37380;DHT22;23252;-33.992;18.480;2023-04-06T08:11:41;21.10;99.90
37380;DHT22;23252;-33.992;18.480;2023-04-06T08:14:08;21.20;99.90
37380;DHT22;23252;-33.992;18.480;2023-04-06T08:16:34;21.30;99.90
37380;DHT22;23252;-33.992;18.480;2023-04-06T08:19:01;21.50;99.90
37380;DHT22;23252;-33.992;18.480;2023-04-06T08:21:27;21.70;99.90
37380;DHT22;23252;-33.992;18.480;2023-04-06T10:16:42;26.70;99.90
37380;DHT22;23252;-33.992;18.480;2023-04-06T10:19:20;27.80;99.90
37380;DHT22;23252;-33.992;18.480;2023-04-06T10:21:51;27.90;99.90
37380;DHT22;23252;-33.992;18.480;2023-04-06T10:24:19;28.20;99.90
37380;DHT22;23252;-33.992;18.480;2023-04-06T10:27:01;28.30;99.90
37380;DHT22;23252;-33.992;18.480;2023-04-06T10:29:28;28.20;99.90
37380;DHT22;23252;-33.992;18.480;2023-04-06T10:31:54;28.10;99.90
37380;DHT22;23252;-33.992;18.480;2023-04-06T10:34:21;28.00;99.90
37380;DHT22;23252;-33.992;18.480;2023-04-06T10:36:48;27.90;99.90
37380;DHT22;23252;-33.992;18.480;2023-04-06T10:39:14;27.90;99.90
37380;DHT22;23252;-33.992;18.480;2023-04-06T10:41:50;27.90;99.90
37380;DHT22;23252;-33.992;18.480;2023-04-06T10:44:24;27.80;99.90
37380;DHT22;23252;-33.992;18.480;2023-04-06T10:46:55;27.70;99.90
37380;DHT22;23252;-33.992;18.480;2023-04-06T10:49:22;27.60;99.90
37380;DHT22;23252;-33.992;18.480;2023-04-06T10:51:53;27.50;99.90
37380;DHT22;23252;-33.992;18.480;2023-04-06T10:54:21;27.40;99.90
37380;DHT22;23252;-33.992;18.480;2023-04-06T10:56:48;27.30;99.90
37380;DHT22;23252;-33.992;18.480;2023-04-06T10:59:21;27.20;99.90
37380;DHT22;23252;-33.992;18.480;2023-04-06T11:01:49;27.10;99.90
37380;DHT22;23252;-33.992;18.480;2023-04-06T11:04:17;27.00;99.90
37380;DHT22;23252;-33.992;18.480;2023-04-06T11:06:48;26.80;99.90
37380;DHT22;23252;-33.992;18.480;2023-04-06T11:09:28;26.90;99.90
37380;DHT22;23252;-33.992;18.480;2023-04-06T11:11:55;27.00;99.90
37380;DHT22;23252;-33.992;18.480;2023-04-06T11:14:22;27.10;99.90
37380;DHT22;23252;-33.992;18.480;2023-04-06T11:16:49;27.20;99.90
37380;DHT22;23252;-33.992;18.480;2023-04-06T11:19:15;27.30;99.90
37380;DHT22;23252;-33.992;18.480;2023-04-06T11:21:47;27.40;99.90
37380;DHT22;23252;-33.992;18.480;2023-04-06T11:26:53;27.70;99.90
37380;DHT22;23252;-33.992;18.480;2023-04-06T11:29:28;27.80;99.90
37380;DHT22;23252;-33.992;18.480;2023-04-06T11:31:59;27.60;99.90
37380;DHT22;23252;-33.992;18.480;2023-04-06T11:34:28;27.50;99.90
37380;DHT22;23252;-33.992;18.480;2023-04-06T11:36:59;27.40;99.90
37380;DHT22;23252;-33.992;18.480;2023-04-06T11:39:27;27.30;99.90
37380;DHT22;23252;-33.992;18.480;2023-04-06T11:41:58;27.10;99.90
37380;DHT22;23252;-33.992;18.480;2023-04-06T11:47:09;26.60;99.90
37380;DHT22;23252;-33.992;18.480;2023-04-06T11:49:40;26.40;99.90
37380;DHT22;23252;-33.992;18.480;2023-04-06T11:52:22;26.30;99.90
37380;DHT22;23252;-33.992;18.480;2023-04-06T11:54:50;26.20;99.90
37380;DHT22;23252;-33.992;18.480;2023-04-06T11:57:19;26.40;99.90
37380;DHT22;23252;-33.992;18.480;2023-04-06T11:59:45;26.70;99.90
37380;DHT22;23252;-33.992;18.480;2023-04-06T12:02:12;27.20;99.90
37380;DHT22;23252;-33.992;18.480;2023-04-06T12:04:39;27.70;99.90
37380;DHT22;23252;-33.992;18.480;2023-04-06T12:07:06;28.10;99.90
37380;DHT22;23252;-33.992;18.480;2023-04-06T12:09:32;28.50;99.90
37380;DHT22;23252;-33.992;18.480;2023-04-06T12:12:02;28.90;99.90
37380;DHT22;23252;-33.992;18.480;2023-04-06T12:14:29;29.10;99.90
37380;DHT22;23252;-33.992;18.480;2023-04-06T12:16:57;29.30;99.90
37380;DHT22;23252;-33.992;18.480;2023-04-06T12:19:24;29.60;99.90
37380;DHT22;23252;-33.992;18.480;2023-04-06T12:21:52;29.80;99.90
37380;DHT22;23252;-33.992;18.480;2023-04-06T12:24:20;30.10;99.90
37380;DHT22;23252;-33.992;18.480;2023-04-06T12:26:47;30.60;99.90
37380;DHT22;23252;-33.992;18.480;2023-04-06T12:29:13;30.80;99.90
37380;DHT22;23252;-33.992;18.480;2023-04-06T12:31:40;30.90;99.90
37380;DHT22;23252;-33.992;18.480;2023-04-06T12:34:09;30.50;99.90
37380;DHT22;23252;-33.992;18.480;2023-04-06T12:36:37;30.00;99.90
37380;DHT22;23252;-33.992;18.480;2023-04-06T12:39:04;29.80;99.90
37380;DHT22;23252;-33.992;18.480;2023-04-06T12:41:31;30.00;99.90
37380;DHT22;23252;-33.992;18.480;2023-04-06T12:43:58;30.10;99.90
37380;DHT22;23252;-33.992;18.480;2023-04-06T12:46:28;30.60;99.90
37380;DHT22;23252;-33.992;18.480;2023-04-06T12:48:57;31.40;99.90
37380;DHT22;23252;-33.992;18.480;2023-04-06T12:51:28;31.80;99.90
37380;DHT22;23252;-33.992;18.480;2023-04-06T12:53:55;32.10;99.90
37380;DHT22;23252;-33.992;18.480;2023-04-06T12:56:21;32.20;99.90
37380;DHT22;23252;-33.992;18.480;2023-04-06T12:58:50;32.50;99.90
37380;DHT22;23252;-33.992;18.480;2023-04-06T13:01:16;32.70;99.90
37380;DHT22;23252;-33.992;18.480;2023-04-06T13:03:44;32.70;99.90
37380;DHT22;23252;-33.992;18.480;2023-04-06T13:06:11;33.00;99.90
37380;DHT22;23252;-33.992;18.480;2023-04-06T13:08:39;33.30;99.90
37380;DHT22;23252;-33.992;18.480;2023-04-06T13:11:06;33.10;99.90
37380;DHT22;23252;-33.992;18.480;2023-04-06T13:13:36;32.80;99.90
37380;DHT22;23252;-33.992;18.480;2023-04-06T13:16:05;32.70;99.90
37380;DHT22;23252;-33.992;18.480;2023-04-06T13:18:32;32.90;99.90
37380;DHT22;23252;-33.992;18.480;2023-04-06T13:21:00;33.30;99.90
37380;DHT22;23252;-33.992;18.480;2023-04-06T13:23:27;33.50;99.90
37380;DHT22;23252;-33.992;18.480;2023-04-06T13:26:04;33.70;99.90
37380;DHT22;23252;-33.992;18.480;2023-04-06T13:28:32;33.90;99.90
37380;DHT22;23252;-33.992;18.480;2023-04-06T13:30:59;34.20;99.90
37380;DHT22;23252;-33.992;18.480;2023-04-06T13:33:29;34.60;99.90
37380;DHT22;23252;-33.992;18.480;2023-04-06T13:35:56;34.70;99.90
37380;DHT22;23252;-33.992;18.480;2023-04-06T13:38:23;34.50;99.90
37380;DHT22;23252;-33.992;18.480;2023-04-06T13:40:52;33.10;99.90
37380;DHT22;23252;-33.992;18.480;2023-04-06T13:43:19;31.80;99.90
37380;DHT22;23252;-33.992;18.480;2023-04-06T13:45:54;30.30;99.90
37380;DHT22;23252;-33.992;18.480;2023-04-06T13:48:21;29.50;99.90
37380;DHT22;23252;-33.992;18.480;2023-04-06T13:50:47;29.40;99.90
37380;DHT22;23252;-33.992;18.480;2023-04-06T13:53:14;29.30;99.90
37380;DHT22;23252;-33.992;18.480;2023-04-06T13:55:40;29.00;99.90
37380;DHT22;23252;-33.992;18.480;2023-04-06T13:58:07;28.50;99.90
37380;DHT22;23252;-33.992;18.480;2023-04-06T14:00:34;28.10;99.90
37380;DHT22;23252;-33.992;18.480;2023-04-06T14:03:00;27.80;99.90
37380;DHT22;23252;-33.992;18.480;2023-04-06T14:05:30;27.70;99.90
37380;DHT22;23252;-33.992;18.480;2023-04-06T14:07:56;27.70;99.90
37380;DHT22;23252;-33.992;18.480;2023-04-06T14:10:23;27.60;99.90
37380;DHT22;23252;-33.992;18.480;2023-04-06T14:12:52;27.60;99.90
37380;DHT22;23252;-33.992;18.480;2023-04-06T14:15:19;27.60;99.90
37380;DHT22;23252;-33.992;18.480;2023-04-06T14:17:47;27.50;99.90
37380;DHT22;23252;-33.992;18.480;2023-04-06T14:20:14;27.50;99.90
37380;DHT22;23252;-33.992;18.480;2023-04-06T14:22:41;27.50;99.90
37380;DHT22;23252;-33.992;18.480;2023-04-06T14:25:09;27.40;99.90
37380;DHT22;23252;-33.992;18.480;2023-04-06T14:27:37;27.40;99.90
37380;DHT22;23252;-33.992;18.480;2023-04-06T14:30:04;27.40;99.90
37380;DHT22;23252;-33.992;18.480;2023-04-06T14:32:30;27.30;99.90
37380;DHT22;23252;-33.992;18.480;2023-04-06T14:34:57;27.00;99.90
37380;DHT22;23252;-33.992;18.480;2023-04-06T14:37:23;26.90;99.90
37380;DHT22;23252;-33.992;18.480;2023-04-06T14:39:50;26.80;99.90
37380;DHT22;23252;-33.992;18.480;2023-04-06T14:42:16;26.50;99.90
37380;DHT22;23252;-33.992;18.480;2023-04-06T14:44:43;26.30;99.90
37380;DHT22;23252;-33.992;18.480;2023-04-06T14:47:11;26.10;99.90
37380;DHT22;23252;-33.992;18.480;2023-04-06T14:49:41;25.80;99.90
37380;DHT22;23252;-33.992;18.480;2023-04-06T14:52:08;25.60;99.90
37380;DHT22;23252;-33.992;18.480;2023-04-06T14:54:34;25.40;99.90
37380;DHT22;23252;-33.992;18.480;2023-04-06T14:57:01;25.20;99.90
37380;DHT22;23252;-33.992;18.480;2023-04-06T14:59:27;25.10;99.90
37380;DHT22;23252;-33.992;18.480;2023-04-06T15:01:54;25.00;99.90
37380;DHT22;23252;-33.992;18.480;2023-04-06T15:04:20;24.90;99.90
37380;DHT22;23252;-33.992;18.480;2023-04-06T15:06:47;24.90;99.90
37380;DHT22;23252;-33.992;18.480;2023-04-06T15:09:13;24.90;99.90
37380;DHT22;23252;-33.992;18.480;2023-04-06T15:11:40;24.80;99.90
37380;DHT22;23252;-33.992;18.480;2023-04-06T15:14:06;24.80;99.90
37380;DHT22;23252;-33.992;18.480;2023-04-06T15:16:33;24.70;99.90
37380;DHT22;23252;-33.992;18.480;2023-04-06T15:19:00;24.60;99.90
37380;DHT22;23252;-33.992;18.480;2023-04-06T15:21:27;24.60;99.90
37380;DHT22;23252;-33.992;18.480;2023-04-06T15:23:54;24.50;99.90
37380;DHT22;23252;-33.992;18.480;2023-04-06T15:26:21;24.50;99.90
37380;DHT22;23252;-33.992;18.480;2023-04-06T15:28:48;24.50;99.90
37380;DHT22;23252;-33.992;18.480;2023-04-06T15:31:15;24.50;99.90
37380;DHT22;23252;-33.992;18.480;2023-04-06T15:33:42;24.50;99.90
37380;DHT22;23252;-33.992;18.480;2023-04-06T15:36:26;24.60;99.90
37380;DHT22;23252;-33.992;18.480;2023-04-06T15:38:55;24.50;99.90
37380;DHT22;23252;-33.992;18.480;2023-04-06T15:41:22;24.50;99.90
37380;DHT22;23252;-33.992;18.480;2023-04-06T15:43:49;24.40;99.90
37380;DHT22;23252;-33.992;18.480;2023-04-06T15:46:16;24.40;99.90
37380;DHT22;23252;-33.992;18.480;2023-04-06T15:48:43;24.30;99.90
37380;DHT22;23252;-33.992;18.480;2023-04-06T15:51:09;24.20;99.90
37380;DHT22;23252;-33.992;18.480;2023-04-06T15:53:36;24.20;99.90
37380;DHT22;23252;-33.992;18.480;2023-04-06T15:56:05;24.00;99.90
37380;DHT22;23252;-33.992;18.480;2023-04-06T15:58:33;23.90;99.90
37380;DHT22;23252;-33.992;18.480;2023-04-06T16:01:00;23.90;99.90
37380;DHT22;23252;-33.992;18.480;2023-04-06T16:03:26;23.70;99.90
37380;DHT22;23252;-33.992;18.480;2023-04-06T16:05:53;23.70;99.90
37380;DHT22;23252;-33.992;18.480;2023-04-06T16:08:20;23.60;99.90
37380;DHT22;23252;-33.992;18.480;2023-04-06T16:10:47;23.50;99.90
37380;DHT22;23252;-33.992;18.480;2023-04-06T16:13:14;23.40;99.90
37380;DHT22;23252;-33.992;18.480;2023-04-06T16:15:41;23.40;99.90
37380;DHT22;23252;-33.992;18.480;2023-04-06T16:18:07;23.30;99.90
37380;DHT22;23252;-33.992;18.480;2023-04-06T16:20:34;23.10;99.90
37380;DHT22;23252;-33.992;18.480;2023-04-06T16:23:01;22.80;99.90
37380;DHT22;23252;-33.992;18.480;2023-04-06T16:25:28;22.50;99.90
37380;DHT22;23252;-33.992;18.480;2023-04-06T16:27:55;22.40;99.90
37380;DHT22;23252;-33.992;18.480;2023-04-06T16:30:22;22.20;99.90
37380;DHT22;23252;-33.992;18.480;2023-04-06T16:32:51;22.10;99.90
37380;DHT22;23252;-33.992;18.480;2023-04-06T16:35:18;22.00;99.90
37380;DHT22;23252;-33.992;18.480;2023-04-06T16:37:45;21.90;99.90
37380;DHT22;23252;-33.992;18.480;2023-04-06T16:40:11;21.80;99.90
37380;DHT22;23252;-33.992;18.480;2023-04-06T16:42:38;21.80;99.90
37380;DHT22;23252;-33.992;18.480;2023-04-06T16:45:06;21.80;99.90
37380;DHT22;23252;-33.992;18.480;2023-04-06T16:47:33;21.70;99.90
37380;DHT22;23252;-33.992;18.480;2023-04-06T16:49:59;21.60;99.90
37380;DHT22;23252;-33.992;18.480;2023-04-06T16:52:27;21.50;99.90
37380;DHT22;23252;-33.992;18.480;2023-04-06T16:55:00;21.50;99.90
37380;DHT22;23252;-33.992;18.480;2023-04-06T16:57:26;21.50;99.90
37380;DHT22;23252;-33.992;18.480;2023-04-06T16:59:55;21.40;99.90
37380;DHT22;23252;-33.992;18.480;2023-04-06T17:02:22;21.40;99.90
37380;DHT22;23252;-33.992;18.480;2023-04-06T17:04:49;21.30;99.90
37380;DHT22;23252;-33.992;18.480;2023-04-06T17:07:15;21.40;99.90
37380;DHT22;23252;-33.992;18.480;2023-04-06T17:09:42;21.30;99.90
37380;DHT22;23252;-33.992;18.480;2023-04-06T17:12:08;21.30;99.90
37380;DHT22;23252;-33.992;18.480;2023-04-06T17:14:35;21.20;99.90
37380;DHT22;23252;-33.992;18.480;2023-04-06T17:17:02;21.20;99.90
37380;DHT22;23252;-33.992;18.480;2023-04-06T17:19:28;21.20;99.90
37380;DHT22;23252;-33.992;18.480;2023-04-06T17:21:55;21.20;99.90
37380;DHT22;23252;-33.992;18.480;2023-04-06T17:24:22;21.20;99.90
37380;DHT22;23252;-33.992;18.480;2023-04-06T17:26:48;21.20;99.90
37380;DHT22;23252;-33.992;18.480;2023-04-06T17:29:15;21.10;99.90
37380;DHT22;23252;-33.992;18.480;2023-04-06T17:31:43;21.10;99.90
37380;DHT22;23252;-33.992;18.480;2023-04-06T17:34:11;21.10;99.90
37380;DHT22;23252;-33.992;18.480;2023-04-06T17:36:37;21.00;99.90
37380;DHT22;23252;-33.992;18.480;2023-04-06T17:39:04;21.10;99.90
37380;DHT22;23252;-33.992;18.480;2023-04-06T17:41:30;21.00;99.90
37380;DHT22;23252;-33.992;18.480;2023-04-06T17:43:59;20.90;99.90
37380;DHT22;23252;-33.992;18.480;2023-04-06T17:46:26;20.80;99.90
37380;DHT22;23252;-33.992;18.480;2023-04-06T17:48:52;20.70;99.90
37380;DHT22;23252;-33.992;18.480;2023-04-06T17:51:19;20.80;99.90
37380;DHT22;23252;-33.992;18.480;2023-04-06T17:53:46;20.80;99.90
37380;DHT22;23252;-33.992;18.480;2023-04-06T17:56:12;20.80;99.90
37380;DHT22;23252;-33.992;18.480;2023-04-06T17:58:40;20.80;99.90
37380;DHT22;23252;-33.992;18.480;2023-04-06T18:01:07;20.80;99.90
37380;DHT22;23252;-33.992;18.480;2023-04-06T18:03:36;20.90;99.90
37380;DHT22;23252;-33.992;18.480;2023-04-06T18:06:11;20.90;99.90
37380;DHT22;23252;-33.992;18.480;2023-04-06T18:08:37;20.90;99.90
37380;DHT22;23252;-33.992;18.480;2023-04-06T18:11:04;20.90;99.90
37380;DHT22;23252;-33.992;18.480;2023-04-06T18:13:31;20.80;99.90
37380;DHT22;23252;-33.992;18.480;2023-04-06T18:16:01;20.90;99.90
37380;DHT22;23252;-33.992;18.480;2023-04-06T18:18:27;20.70;99.90
37380;DHT22;23252;-33.992;18.480;2023-04-06T18:20:54;20.60;99.90
37380;DHT22;23252;-33.992;18.480;2023-04-06T18:23:21;20.60;99.90
37380;DHT22;23252;-33.992;18.480;2023-04-06T18:25:48;20.50;99.90
37380;DHT22;23252;-33.992;18.480;2023-04-06T18:28:17;20.40;99.90
37380;DHT22;23252;-33.992;18.480;2023-04-06T18:30:44;20.40;99.90
37380;DHT22;23252;-33.992;18.480;2023-04-06T18:33:10;20.30;99.90
37380;DHT22;23252;-33.992;18.480;2023-04-06T18:35:37;20.30;99.90
37380;DHT22;23252;-33.992;18.480;2023-04-06T18:38:04;20.40;99.90
37380;DHT22;23252;-33.992;18.480;2023-04-06T18:40:32;20.30;99.90
37380;DHT22;23252;-33.992;18.480;2023-04-06T18:42:59;20.30;99.90
37380;DHT22;23252;-33.992;18.480;2023-04-06T18:45:26;20.40;99.90
37380;DHT22;23252;-33.992;18.480;2023-04-06T18:47:54;20.40;99.90
37380;DHT22;23252;-33.992;18.480;2023-04-06T18:50:22;20.40;99.90
37380;DHT22;23252;-33.992;18.480;2023-04-06T18:52:49;20.40;99.90
37380;DHT22;23252;-33.992;18.480;2023-04-06T18:55:16;20.40;99.90
37380;DHT22;23252;-33.992;18.480;2023-04-06T18:57:46;20.40;99.90
37380;DHT22;23252;-33.992;18.480;2023-04-06T19:00:14;20.40;99.90
37380;DHT22;23252;-33.992;18.480;2023-04-06T19:02:44;20.40;99.90
37380;DHT22;23252;-33.992;18.480;2023-04-06T19:05:12;20.40;99.90
37380;DHT22;23252;-33.992;18.480;2023-04-06T19:07:39;20.40;99.90
37380;DHT22;23252;-33.992;18.480;2023-04-06T19:10:08;20.50;99.90
37380;DHT22;23252;-33.992;18.480;2023-04-06T19:12:35;20.40;99.90